»·PEaware :: N698SP L52-L88

N698SP :: L52-L88

FLIGHT INFORMATION

Flight Status: Arrived
Operator: Privately registered:
United States
More flights under this callsign
Pilot: Dominik G. (31997)
Aircraft: CESSNA 172 SKYHAWK
(C172)
More flights by this aircraft type
Origin: L52 Oceano Co
United States
Destination: L88 New Cuyama
United States
More flights between these airports :: More routes between these airports
Route: L52 WYNNR L88
File this flight plan on PilotEdge
Remarks:
Altitude:
(Current/Filed)
5,500ft
Speed:
(Current/Filed)
104kts
Departed: 23-Nov-20 04:03 PM
Arrived: 23-Nov-20 06:08 PM
Distance/Time
Traveled:
47nm/2:05
Distance/Time
To Go:
Arrived

Flight Plot

Page will automatically refresh every two minutes.


Map Options




Map Legend


Flown Route
Filed Route
Departure Airport
Arrival Airport
Navaid (VOR, NDB)
Fix

Horizontal Profiles

Position Reports

Time Latitude Longitude Heading Altitude Ground
Speed
23-Nov-20 15:44 35.102152 -120.622309 16 18ft 0kts
23-Nov-20 15:45 35.102152 -120.622309 16 18ft 0kts
23-Nov-20 15:46 35.102152 -120.622309 16 18ft 0kts
23-Nov-20 15:47 35.102152 -120.622309 16 18ft 0kts
23-Nov-20 15:48 35.102152 -120.622309 16 18ft 0kts
23-Nov-20 15:49 35.102152 -120.622309 16 18ft 0kts
23-Nov-20 15:50 35.102152 -120.622309 16 18ft 0kts
23-Nov-20 15:51 35.102152 -120.622309 16 18ft 0kts
23-Nov-20 15:52 35.102152 -120.622309 16 18ft 0kts
23-Nov-20 15:53 35.102152 -120.622309 16 18ft 0kts
23-Nov-20 15:54 35.102152 -120.622309 16 18ft 0kts
23-Nov-20 15:55 35.102152 -120.622309 16 18ft 0kts
23-Nov-20 15:56 35.102152 -120.622309 16 18ft 0kts
23-Nov-20 15:57 35.102152 -120.622309 16 18ft 0kts
23-Nov-20 15:58 35.102156 -120.622307 23 18ft 1kts
23-Nov-20 15:59 35.101806 -120.622286 219 18ft 6kts
23-Nov-20 16:00 35.099609 -120.619666 114 17ft 7kts
23-Nov-20 16:01 35.099936 -120.619348 317 16ft 11kts
23-Nov-20 16:02 35.109537 -120.636743 309 462ft 78kts
23-Nov-20 16:03 35.101532 -120.650543 142 1261ft 77kts
23-Nov-20 16:04 35.083571 -120.631136 146 1940ft 90kts
23-Nov-20 16:05 35.060382 -120.616812 130 2471ft 109kts
23-Nov-20 16:06 35.053387 -120.580345 99 2488ft 113kts
23-Nov-20 16:07 35.049158 -120.548456 93 3101ft 103kts
23-Nov-20 16:08 35.046006 -120.510238 93 3154ft 119kts
23-Nov-20 16:09 35.045908 -120.509014 93 3154ft 119kts
23-Nov-20 16:10 35.044776 -120.497515 96 3324ft 107kts
23-Nov-20 16:11 35.039365 -120.462382 97 3774ft 97kts
23-Nov-20 16:12 35.033110 -120.430092 103 4239ft 95kts
23-Nov-20 16:13 35.024724 -120.398431 102 4620ft 93kts
23-Nov-20 16:14 35.019833 -120.376684 99 4848ft 88kts
23-Nov-20 16:15 35.019690 -120.376006 99 4846ft 90kts
23-Nov-20 16:16 35.019690 -120.376006 99 4846ft 90kts
23-Nov-20 16:17 35.019690 -120.376006 99 4846ft 90kts
23-Nov-20 16:18 35.019690 -120.376006 99 4846ft 90kts
23-Nov-20 16:19 35.019690 -120.376006 99 4846ft 90kts
23-Nov-20 16:20 35.019690 -120.376006 99 4846ft 90kts
23-Nov-20 16:21 35.019690 -120.376006 99 4846ft 90kts
23-Nov-20 16:22 35.019690 -120.376006 99 4846ft 90kts
23-Nov-20 16:23 35.019690 -120.376006 99 4846ft 90kts
23-Nov-20 16:24 35.019690 -120.376006 99 4846ft 90kts
23-Nov-20 16:25 35.019690 -120.376006 99 4846ft 90kts
23-Nov-20 16:26 35.019690 -120.376006 99 4846ft 90kts
23-Nov-20 16:27 35.019690 -120.376006 99 4846ft 90kts
23-Nov-20 16:28 35.019690 -120.376006 99 4846ft 90kts
23-Nov-20 16:29 35.019690 -120.376006 99 4846ft 90kts
23-Nov-20 16:30 35.019690 -120.376006 99 4846ft 90kts
23-Nov-20 16:31 35.019690 -120.376006 99 4846ft 90kts
23-Nov-20 16:32 35.019690 -120.376006 99 4846ft 90kts
23-Nov-20 16:33 35.019690 -120.376006 99 4846ft 90kts
23-Nov-20 16:34 35.019690 -120.376006 99 4846ft 90kts
23-Nov-20 16:35 35.019690 -120.376006 99 4846ft 90kts
23-Nov-20 17:07 35.102153 -120.622308 16 14ft 0kts
23-Nov-20 17:07 35.102152 -120.622309 16 18ft 0kts
23-Nov-20 17:09 35.102152 -120.622309 16 18ft 0kts
23-Nov-20 17:09 35.102152 -120.622309 16 18ft 0kts
23-Nov-20 17:11 35.102152 -120.622309 16 18ft 0kts
23-Nov-20 17:12 35.102152 -120.622309 16 18ft 0kts
23-Nov-20 17:12 35.102152 -120.622309 16 18ft 0kts
23-Nov-20 17:13 35.102228 -120.622229 57 19ft 6kts
23-Nov-20 17:14 35.102312 -120.622059 57 20ft 0kts
23-Nov-20 17:16 35.102311 -120.622059 57 20ft 0kts
23-Nov-20 17:16 0.000408 0.013975 0 3ft 0kts
23-Nov-20 17:17 0.000408 0.013975 0 3ft 0kts
23-Nov-20 17:31 35.103452 -120.624820 213 18ft 0kts
23-Nov-20 17:32 35.103452 -120.624820 213 18ft 0kts
23-Nov-20 17:33 35.103452 -120.624820 213 18ft 0kts
23-Nov-20 17:34 35.103452 -120.624820 213 18ft 0kts
23-Nov-20 17:35 35.101936 -120.622300 163 18ft 0kts
23-Nov-20 17:36 35.101320 -120.622642 186 18ft 10kts
23-Nov-20 17:37 35.099613 -120.619585 75 18ft 0kts
23-Nov-20 17:38 35.103582 -120.626274 301 329ft 57kts
23-Nov-20 17:39 35.097135 -120.635250 112 1317ft 92kts
23-Nov-20 17:40 35.096889 -120.605201 62 2314ft 88kts
23-Nov-20 17:41 35.097619 -120.574675 90 3276ft 95kts
23-Nov-20 17:42 35.096497 -120.542049 77 4200ft 99kts
23-Nov-20 17:43 35.099331 -120.508948 67 5120ft 96kts
23-Nov-20 17:44 35.104957 -120.473817 67 5498ft 114kts
23-Nov-20 17:45 35.107653 -120.433989 78 5521ft 119kts
23-Nov-20 17:46 35.108822 -120.393188 79 5544ft 120kts
23-Nov-20 17:47 35.109965 -120.352451 78 5567ft 120kts
23-Nov-20 17:48 35.111169 -120.311475 79 5573ft 120kts
23-Nov-20 17:49 35.112687 -120.270576 78 5578ft 120kts
23-Nov-20 17:50 35.114500 -120.229788 78 5584ft 120kts
23-Nov-20 17:51 35.108396 -120.189588 115 5588ft 128kts
23-Nov-20 17:52 35.094664 -120.149734 107 5595ft 127kts
23-Nov-20 17:53 35.081686 -120.109414 107 5603ft 127kts
23-Nov-20 17:54 35.068899 -120.068974 107 5612ft 127kts
23-Nov-20 17:55 35.056373 -120.028421 107 5620ft 127kts
23-Nov-20 17:56 35.044083 -119.987652 106 5632ft 128kts
23-Nov-20 17:57 35.031933 -119.946767 107 5645ft 127kts
23-Nov-20 17:58 35.019577 -119.906185 109 5659ft 127kts
23-Nov-20 17:59 35.006170 -119.864018 109 5230ft 132kts
23-Nov-20 18:00 34.990983 -119.823515 113 4737ft 128kts
23-Nov-20 18:01 34.974297 -119.786186 119 4212ft 124kts
23-Nov-20 18:02 34.957697 -119.749038 116 3522ft 124kts
23-Nov-20 18:03 34.944697 -119.712629 110 3187ft 106kts
23-Nov-20 18:04 34.932007 -119.681195 117 3194ft 106kts
23-Nov-20 18:05 34.929469 -119.658518 298 3226ft 55kts
23-Nov-20 18:06 34.935265 -119.674230 293 2436ft 53kts
23-Nov-20 18:07 34.939831 -119.685402 299 2180ft 28kts
23-Nov-20 18:08 34.943312 -119.690971 10 2155ft 10kts
23-Nov-20 18:09 34.943618 -119.691183 285 2152ft 0kts
23-Nov-20 18:10 34.943618 -119.691183 285 2152ft 0kts
23-Nov-20 18:11 34.943618 -119.691183 285 2152ft 0kts
23-Nov-20 18:12 34.943618 -119.691183 285 2152ft 0kts
23-Nov-20 18:13 34.943618 -119.691183 285 2152ft 0kts
23-Nov-20 18:14 34.943618 -119.691183 285 2152ft 0kts

Navigation Log

Ident Type
Flight plan parsing failed, navigation log unavailable